sensor_id;sensor_type;location;lat;lon;timestamp;P1;durP1;ratioP1;P2;durP2;ratioP2
19927;SDS011;10126;50.876;4.470;2023-02-13T00:01:39;0.47;;;0.47;;
19927;SDS011;10126;50.876;4.470;2023-02-13T00:03:40;0.50;;;0.50;;
19927;SDS011;10126;50.876;4.470;2023-02-13T00:05:41;0.50;;;0.50;;
19927;SDS011;10126;50.876;4.470;2023-02-13T00:07:41;0.50;;;0.50;;
19927;SDS011;10126;50.876;4.470;2023-02-13T00:09:42;0.40;;;0.40;;
19927;SDS011;10126;50.876;4.470;2023-02-13T00:11:42;0.50;;;0.50;;
19927;SDS011;10126;50.876;4.470;2023-02-13T00:13:43;0.50;;;0.50;;
19927;SDS011;10126;50.876;4.470;2023-02-13T00:15:44;0.50;;;0.50;;
19927;SDS011;10126;50.876;4.470;2023-02-13T00:17:44;0.50;;;0.50;;
19927;SDS011;10126;50.876;4.470;2023-02-13T00:19:45;0.50;;;0.50;;
19927;SDS011;10126;50.876;4.470;2023-02-13T00:21:46;0.40;;;0.40;;
19927;SDS011;10126;50.876;4.470;2023-02-13T00:23:46;0.50;;;0.50;;
19927;SDS011;10126;50.876;4.470;2023-02-13T00:25:47;0.50;;;0.50;;
19927;SDS011;10126;50.876;4.470;2023-02-13T00:27:49;0.40;;;0.40;;
19927;SDS011;10126;50.876;4.470;2023-02-13T00:29:50;0.50;;;0.50;;
19927;SDS011;10126;50.876;4.470;2023-02-13T00:31:51;0.50;;;0.50;;
19927;SDS011;10126;50.876;4.470;2023-02-13T00:33:51;0.53;;;0.53;;
19927;SDS011;10126;50.876;4.470;2023-02-13T00:36:00;0.47;;;0.47;;
19927;SDS011;10126;50.876;4.470;2023-02-13T00:38:02;0.50;;;0.50;;
19927;SDS011;10126;50.876;4.470;2023-02-13T00:40:02;0.50;;;0.50;;
19927;SDS011;10126;50.876;4.470;2023-02-13T00:42:04;0.50;;;0.50;;
19927;SDS011;10126;50.876;4.470;2023-02-13T00:44:05;0.60;;;0.60;;
19927;SDS011;10126;50.876;4.470;2023-02-13T00:46:05;0.50;;;0.50;;
19927;SDS011;10126;50.876;4.470;2023-02-13T00:48:06;0.40;;;0.40;;
19927;SDS011;10126;50.876;4.470;2023-02-13T00:50:06;0.50;;;0.50;;
19927;SDS011;10126;50.876;4.470;2023-02-13T00:52:07;0.50;;;0.50;;
19927;SDS011;10126;50.876;4.470;2023-02-13T00:54:08;0.60;;;0.60;;
19927;SDS011;10126;50.876;4.470;2023-02-13T00:56:09;0.60;;;0.60;;
19927;SDS011;10126;50.876;4.470;2023-02-13T00:58:09;0.50;;;0.50;;
19927;SDS011;10126;50.876;4.470;2023-02-13T01:00:10;0.50;;;0.50;;
19927;SDS011;10126;50.876;4.470;2023-02-13T01:02:11;0.57;;;0.57;;
19927;SDS011;10126;50.876;4.470;2023-02-13T01:04:12;0.50;;;0.50;;
19927;SDS011;10126;50.876;4.470;2023-02-13T01:06:12;0.50;;;0.50;;
19927;SDS011;10126;50.876;4.470;2023-02-13T01:08:14;0.50;;;0.50;;
19927;SDS011;10126;50.876;4.470;2023-02-13T01:10:16;0.63;;;0.63;;
19927;SDS011;10126;50.876;4.470;2023-02-13T01:12:16;0.50;;;0.50;;
19927;SDS011;10126;50.876;4.470;2023-02-13T01:14:17;0.47;;;0.47;;
19927;SDS011;10126;50.876;4.470;2023-02-13T01:16:18;0.67;;;0.67;;
19927;SDS011;10126;50.876;4.470;2023-02-13T01:18:19;0.60;;;0.60;;
19927;SDS011;10126;50.876;4.470;2023-02-13T01:20:20;0.50;;;0.50;;
19927;SDS011;10126;50.876;4.470;2023-02-13T01:22:20;0.50;;;0.50;;
19927;SDS011;10126;50.876;4.470;2023-02-13T01:24:21;0.53;;;0.53;;
19927;SDS011;10126;50.876;4.470;2023-02-13T01:26:22;0.60;;;0.60;;
19927;SDS011;10126;50.876;4.470;2023-02-13T01:28:23;0.60;;;0.60;;
19927;SDS011;10126;50.876;4.470;2023-02-13T01:30:24;0.50;;;0.50;;
19927;SDS011;10126;50.876;4.470;2023-02-13T01:32:25;0.50;;;0.50;;
19927;SDS011;10126;50.876;4.470;2023-02-13T01:34:26;0.50;;;0.50;;
19927;SDS011;10126;50.876;4.470;2023-02-13T01:36:26;0.50;;;0.50;;
19927;SDS011;10126;50.876;4.470;2023-02-13T01:38:27;0.50;;;0.50;;
19927;SDS011;10126;50.876;4.470;2023-02-13T01:40:27;0.60;;;0.60;;
19927;SDS011;10126;50.876;4.470;2023-02-13T01:42:30;0.67;;;0.67;;
19927;SDS011;10126;50.876;4.470;2023-02-13T01:46:55;0.60;;;0.60;;
19927;SDS011;10126;50.876;4.470;2023-02-13T01:49:04;0.60;;;0.60;;
19927;SDS011;10126;50.876;4.470;2023-02-13T01:51:14;0.70;;;0.70;;
19927;SDS011;10126;50.876;4.470;2023-02-13T01:55:24;0.40;;;0.40;;
19927;SDS011;10126;50.876;4.470;2023-02-13T01:57:26;0.50;;;0.50;;
19927;SDS011;10126;50.876;4.470;2023-02-13T01:59:32;0.60;;;0.60;;
19927;SDS011;10126;50.876;4.470;2023-02-13T02:01:38;0.50;;;0.50;;
19927;SDS011;10126;50.876;4.470;2023-02-13T02:05:53;0.60;;;0.60;;
19927;SDS011;10126;50.876;4.470;2023-02-13T02:07:57;0.60;;;0.60;;
19927;SDS011;10126;50.876;4.470;2023-02-13T02:10:01;0.60;;;0.60;;
19927;SDS011;10126;50.876;4.470;2023-02-13T02:12:19;0.60;;;0.60;;
19927;SDS011;10126;50.876;4.470;2023-02-13T02:14:45;0.60;;;0.60;;
19927;SDS011;10126;50.876;4.470;2023-02-13T02:16:46;0.50;;;0.50;;
19927;SDS011;10126;50.876;4.470;2023-02-13T02:18:47;0.60;;;0.60;;
19927;SDS011;10126;50.876;4.470;2023-02-13T02:35:08;0.60;;;0.60;;
19927;SDS011;10126;50.876;4.470;2023-02-13T02:46:26;1.30;;;0.80;;
19927;SDS011;10126;50.876;4.470;2023-02-13T02:49:10;7.97;;;2.70;;
19927;SDS011;10126;50.876;4.470;2023-02-13T02:51:31;3.90;;;1.83;;
19927;SDS011;10126;50.876;4.470;2023-02-13T02:54:31;5.97;;;2.30;;
19927;SDS011;10126;50.876;4.470;2023-02-13T02:57:03;4.60;;;2.27;;
19927;SDS011;10126;50.876;4.470;2023-02-13T02:59:14;6.37;;;2.43;;
19927;SDS011;10126;50.876;4.470;2023-02-13T03:01:55;4.77;;;2.07;;
19927;SDS011;10126;50.876;4.470;2023-02-13T03:04:18;2.57;;;1.30;;
19927;SDS011;10126;50.876;4.470;2023-02-13T03:08:52;8.03;;;3.03;;
19927;SDS011;10126;50.876;4.470;2023-02-13T03:11:15;8.93;;;2.87;;
19927;SDS011;10126;50.876;4.470;2023-02-13T03:13:38;7.07;;;3.23;;
19927;SDS011;10126;50.876;4.470;2023-02-13T03:15:41;10.33;;;4.20;;
19927;SDS011;10126;50.876;4.470;2023-02-13T03:18:02;9.60;;;3.30;;
19927;SDS011;10126;50.876;4.470;2023-02-13T03:20:25;10.83;;;4.20;;
19927;SDS011;10126;50.876;4.470;2023-02-13T03:23:13;7.37;;;2.70;;
19927;SDS011;10126;50.876;4.470;2023-02-13T03:25:28;8.00;;;3.23;;
19927;SDS011;10126;50.876;4.470;2023-02-13T03:30:34;9.50;;;3.30;;
19927;SDS011;10126;50.876;4.470;2023-02-13T03:32:45;3.33;;;1.23;;
19927;SDS011;10126;50.876;4.470;2023-02-13T03:35:11;5.47;;;2.13;;
19927;SDS011;10126;50.876;4.470;2023-02-13T03:37:42;2.50;;;1.13;;
19927;SDS011;10126;50.876;4.470;2023-02-13T03:44:31;3.80;;;1.60;;
19927;SDS011;10126;50.876;4.470;2023-02-13T03:46:39;1.77;;;0.80;;
19927;SDS011;10126;50.876;4.470;2023-02-13T03:48:44;2.17;;;0.90;;
19927;SDS011;10126;50.876;4.470;2023-02-13T03:51:05;2.37;;;1.10;;
19927;SDS011;10126;50.876;4.470;2023-02-13T03:53:09;0.93;;;0.60;;
19927;SDS011;10126;50.876;4.470;2023-02-13T03:55:16;0.90;;;0.70;;
19927;SDS011;10126;50.876;4.470;2023-02-13T03:57:38;1.00;;;0.70;;
19927;SDS011;10126;50.876;4.470;2023-02-13T03:59:59;2.70;;;1.17;;
19927;SDS011;10126;50.876;4.470;2023-02-13T04:02:11;1.27;;;1.00;;
19927;SDS011;10126;50.876;4.470;2023-02-13T04:06:45;1.23;;;0.80;;
19927;SDS011;10126;50.876;4.470;2023-02-13T04:08:48;0.60;;;0.50;;
19927;SDS011;10126;50.876;4.470;2023-02-13T04:10:53;3.77;;;1.60;;
19927;SDS011;10126;50.876;4.470;2023-02-13T04:17:13;2.23;;;1.03;;
19927;SDS011;10126;50.876;4.470;2023-02-13T04:19:23;0.43;;;0.43;;
19927;SDS011;10126;50.876;4.470;2023-02-13T04:21:25;1.07;;;0.40;;
19927;SDS011;10126;50.876;4.470;2023-02-13T04:23:26;0.43;;;0.43;;
19927;SDS011;10126;50.876;4.470;2023-02-13T04:25:27;0.40;;;0.40;;
19927;SDS011;10126;50.876;4.470;2023-02-13T04:27:28;0.50;;;0.50;;
19927;SDS011;10126;50.876;4.470;2023-02-13T04:29:28;0.40;;;0.40;;
19927;SDS011;10126;50.876;4.470;2023-02-13T04:31:29;0.40;;;0.40;;
19927;SDS011;10126;50.876;4.470;2023-02-13T04:33:30;0.40;;;0.40;;
19927;SDS011;10126;50.876;4.470;2023-02-13T04:35:30;0.40;;;0.40;;
19927;SDS011;10126;50.876;4.470;2023-02-13T04:37:31;0.40;;;0.40;;
19927;SDS011;10126;50.876;4.470;2023-02-13T04:39:32;0.40;;;0.40;;
19927;SDS011;10126;50.876;4.470;2023-02-13T04:41:32;0.50;;;0.50;;
19927;SDS011;10126;50.876;4.470;2023-02-13T04:43:33;0.50;;;0.50;;
19927;SDS011;10126;50.876;4.470;2023-02-13T04:45:33;0.30;;;0.30;;
19927;SDS011;10126;50.876;4.470;2023-02-13T04:47:34;0.40;;;0.40;;
19927;SDS011;10126;50.876;4.470;2023-02-13T04:49:35;0.40;;;0.40;;
19927;SDS011;10126;50.876;4.470;2023-02-13T04:51:35;0.40;;;0.40;;
19927;SDS011;10126;50.876;4.470;2023-02-13T04:53:36;0.30;;;0.30;;
19927;SDS011;10126;50.876;4.470;2023-02-13T04:55:37;0.30;;;0.30;;
19927;SDS011;10126;50.876;4.470;2023-02-13T04:57:37;0.30;;;0.30;;
19927;SDS011;10126;50.876;4.470;2023-02-13T04:59:38;0.30;;;0.30;;
19927;SDS011;10126;50.876;4.470;2023-02-13T05:01:39;0.43;;;0.43;;
19927;SDS011;10126;50.876;4.470;2023-02-13T05:03:40;0.40;;;0.40;;
19927;SDS011;10126;50.876;4.470;2023-02-13T05:05:40;0.40;;;0.40;;
19927;SDS011;10126;50.876;4.470;2023-02-13T05:07:41;0.30;;;0.30;;
19927;SDS011;10126;50.876;4.470;2023-02-13T05:09:42;0.40;;;0.40;;
19927;SDS011;10126;50.876;4.470;2023-02-13T05:11:42;0.40;;;0.40;;
19927;SDS011;10126;50.876;4.470;2023-02-13T05:13:43;0.40;;;0.40;;
19927;SDS011;10126;50.876;4.470;2023-02-13T05:15:44;0.30;;;0.30;;
19927;SDS011;10126;50.876;4.470;2023-02-13T05:17:46;0.40;;;0.40;;
19927;SDS011;10126;50.876;4.470;2023-02-13T05:19:46;0.37;;;0.37;;
19927;SDS011;10126;50.876;4.470;2023-02-13T05:21:47;0.40;;;0.40;;
19927;SDS011;10126;50.876;4.470;2023-02-13T05:24:06;0.40;;;0.40;;
19927;SDS011;10126;50.876;4.470;2023-02-13T05:26:07;0.30;;;0.30;;
19927;SDS011;10126;50.876;4.470;2023-02-13T05:28:08;0.30;;;0.30;;
19927;SDS011;10126;50.876;4.470;2023-02-13T05:30:28;0.40;;;0.40;;
19927;SDS011;10126;50.876;4.470;2023-02-13T05:32:29;0.60;;;0.40;;
19927;SDS011;10126;50.876;4.470;2023-02-13T05:34:29;0.30;;;0.30;;
19927;SDS011;10126;50.876;4.470;2023-02-13T05:36:30;0.40;;;0.40;;
19927;SDS011;10126;50.876;4.470;2023-02-13T05:38:31;0.40;;;0.40;;
19927;SDS011;10126;50.876;4.470;2023-02-13T05:40:31;0.40;;;0.40;;
19927;SDS011;10126;50.876;4.470;2023-02-13T05:42:32;0.40;;;0.40;;
19927;SDS011;10126;50.876;4.470;2023-02-13T05:44:33;0.30;;;0.30;;
19927;SDS011;10126;50.876;4.470;2023-02-13T05:46:33;0.40;;;0.40;;
19927;SDS011;10126;50.876;4.470;2023-02-13T05:48:35;0.40;;;0.40;;
19927;SDS011;10126;50.876;4.470;2023-02-13T05:50:36;0.50;;;0.50;;
19927;SDS011;10126;50.876;4.470;2023-02-13T05:52:38;0.40;;;0.40;;
19927;SDS011;10126;50.876;4.470;2023-02-13T05:54:38;0.40;;;0.40;;
19927;SDS011;10126;50.876;4.470;2023-02-13T05:56:39;0.40;;;0.40;;
19927;SDS011;10126;50.876;4.470;2023-02-13T05:58:39;0.40;;;0.40;;
19927;SDS011;10126;50.876;4.470;2023-02-13T06:00:40;0.50;;;0.50;;
19927;SDS011;10126;50.876;4.470;2023-02-13T06:02:41;0.40;;;0.40;;
19927;SDS011;10126;50.876;4.470;2023-02-13T06:04:41;1.33;;;0.40;;
19927;SDS011;10126;50.876;4.470;2023-02-13T06:06:42;0.40;;;0.40;;
19927;SDS011;10126;50.876;4.470;2023-02-13T06:08:44;0.33;;;0.33;;
19927;SDS011;10126;50.876;4.470;2023-02-13T06:10:45;0.40;;;0.40;;
19927;SDS011;10126;50.876;4.470;2023-02-13T06:12:46;0.30;;;0.30;;
19927;SDS011;10126;50.876;4.470;2023-02-13T06:14:47;0.40;;;0.40;;
19927;SDS011;10126;50.876;4.470;2023-02-13T06:16:47;0.40;;;0.40;;
19927;SDS011;10126;50.876;4.470;2023-02-13T06:18:48;0.30;;;0.30;;
19927;SDS011;10126;50.876;4.470;2023-02-13T06:20:49;0.40;;;0.40;;
19927;SDS011;10126;50.876;4.470;2023-02-13T06:22:50;0.40;;;0.40;;
19927;SDS011;10126;50.876;4.470;2023-02-13T06:24:51;0.40;;;0.40;;
19927;SDS011;10126;50.876;4.470;2023-02-13T06:26:51;0.40;;;0.40;;
19927;SDS011;10126;50.876;4.470;2023-02-13T06:28:52;0.33;;;0.33;;
19927;SDS011;10126;50.876;4.470;2023-02-13T06:30:53;0.47;;;0.47;;
19927;SDS011;10126;50.876;4.470;2023-02-13T06:32:53;0.40;;;0.40;;
19927;SDS011;10126;50.876;4.470;2023-02-13T06:34:54;0.40;;;0.40;;
19927;SDS011;10126;50.876;4.470;2023-02-13T06:36:54;0.40;;;0.40;;
19927;SDS011;10126;50.876;4.470;2023-02-13T06:38:55;0.37;;;0.37;;
19927;SDS011;10126;50.876;4.470;2023-02-13T06:40:58;0.30;;;0.30;;
19927;SDS011;10126;50.876;4.470;2023-02-13T06:43:00;0.40;;;0.40;;
19927;SDS011;10126;50.876;4.470;2023-02-13T06:45:01;0.40;;;0.40;;
19927;SDS011;10126;50.876;4.470;2023-02-13T06:47:02;0.40;;;0.40;;
19927;SDS011;10126;50.876;4.470;2023-02-13T06:49:03;0.40;;;0.40;;
19927;SDS011;10126;50.876;4.470;2023-02-13T06:51:03;0.60;;;0.60;;
19927;SDS011;10126;50.876;4.470;2023-02-13T06:53:04;0.40;;;0.40;;
19927;SDS011;10126;50.876;4.470;2023-02-13T06:55:05;0.30;;;0.30;;
19927;SDS011;10126;50.876;4.470;2023-02-13T06:57:06;0.37;;;0.37;;
19927;SDS011;10126;50.876;4.470;2023-02-13T06:59:06;0.40;;;0.40;;
19927;SDS011;10126;50.876;4.470;2023-02-13T07:01:07;0.50;;;0.50;;
19927;SDS011;10126;50.876;4.470;2023-02-13T07:03:08;0.30;;;0.30;;
19927;SDS011;10126;50.876;4.470;2023-02-13T07:05:10;0.40;;;0.40;;
19927;SDS011;10126;50.876;4.470;2023-02-13T07:07:10;0.50;;;0.50;;
19927;SDS011;10126;50.876;4.470;2023-02-13T07:09:11;0.40;;;0.40;;
19927;SDS011;10126;50.876;4.470;2023-02-13T07:11:15;0.40;;;0.40;;
19927;SDS011;10126;50.876;4.470;2023-02-13T07:13:20;0.40;;;0.40;;
19927;SDS011;10126;50.876;4.470;2023-02-13T07:15:20;0.50;;;0.50;;
19927;SDS011;10126;50.876;4.470;2023-02-13T07:17:21;0.37;;;0.37;;
19927;SDS011;10126;50.876;4.470;2023-02-13T07:19:22;0.40;;;0.40;;
19927;SDS011;10126;50.876;4.470;2023-02-13T07:21:22;0.40;;;0.40;;
19927;SDS011;10126;50.876;4.470;2023-02-13T07:23:23;0.50;;;0.50;;
19927;SDS011;10126;50.876;4.470;2023-02-13T07:25:23;0.40;;;0.40;;
19927;SDS011;10126;50.876;4.470;2023-02-13T07:27:24;0.50;;;0.50;;
19927;SDS011;10126;50.876;4.470;2023-02-13T07:29:28;0.40;;;0.40;;
19927;SDS011;10126;50.876;4.470;2023-02-13T07:31:28;0.33;;;0.33;;
19927;SDS011;10126;50.876;4.470;2023-02-13T07:33:29;0.30;;;0.30;;
19927;SDS011;10126;50.876;4.470;2023-02-13T07:35:30;0.40;;;0.40;;
19927;SDS011;10126;50.876;4.470;2023-02-13T07:37:31;0.40;;;0.40;;
19927;SDS011;10126;50.876;4.470;2023-02-13T07:39:31;0.40;;;0.40;;
19927;SDS011;10126;50.876;4.470;2023-02-13T07:41:32;0.30;;;0.30;;
19927;SDS011;10126;50.876;4.470;2023-02-13T07:43:32;0.30;;;0.30;;
19927;SDS011;10126;50.876;4.470;2023-02-13T07:45:33;0.37;;;0.37;;
19927;SDS011;10126;50.876;4.470;2023-02-13T07:47:34;0.40;;;0.40;;
19927;SDS011;10126;50.876;4.470;2023-02-13T07:49:35;0.30;;;0.30;;
19927;SDS011;10126;50.876;4.470;2023-02-13T07:51:36;0.40;;;0.40;;
19927;SDS011;10126;50.876;4.470;2023-02-13T07:53:37;0.30;;;0.30;;
19927;SDS011;10126;50.876;4.470;2023-02-13T07:55:37;0.40;;;0.40;;
19927;SDS011;10126;50.876;4.470;2023-02-13T07:57:38;0.23;;;0.23;;
19927;SDS011;10126;50.876;4.470;2023-02-13T07:59:39;0.30;;;0.30;;
19927;SDS011;10126;50.876;4.470;2023-02-13T08:01:39;0.20;;;0.20;;
19927;SDS011;10126;50.876;4.470;2023-02-13T08:03:40;0.30;;;0.30;;
19927;SDS011;10126;50.876;4.470;2023-02-13T08:05:41;0.30;;;0.30;;
19927;SDS011;10126;50.876;4.470;2023-02-13T08:07:41;0.30;;;0.30;;
19927;SDS011;10126;50.876;4.470;2023-02-13T08:09:45;0.30;;;0.30;;
19927;SDS011;10126;50.876;4.470;2023-02-13T08:12:05;0.30;;;0.30;;
19927;SDS011;10126;50.876;4.470;2023-02-13T08:14:07;0.30;;;0.30;;
19927;SDS011;10126;50.876;4.470;2023-02-13T08:16:08;0.40;;;0.40;;
19927;SDS011;10126;50.876;4.470;2023-02-13T08:18:09;0.30;;;0.30;;
19927;SDS011;10126;50.876;4.470;2023-02-13T08:20:10;0.30;;;0.30;;
19927;SDS011;10126;50.876;4.470;2023-02-13T08:22:11;0.33;;;0.33;;
19927;SDS011;10126;50.876;4.470;2023-02-13T08:24:11;0.27;;;0.27;;
19927;SDS011;10126;50.876;4.470;2023-02-13T08:26:12;0.30;;;0.30;;
19927;SDS011;10126;50.876;4.470;2023-02-13T08:28:13;0.27;;;0.27;;
19927;SDS011;10126;50.876;4.470;2023-02-13T08:30:14;0.20;;;0.20;;
19927;SDS011;10126;50.876;4.470;2023-02-13T08:32:14;0.20;;;0.20;;
19927;SDS011;10126;50.876;4.470;2023-02-13T08:34:15;0.20;;;0.20;;
19927;SDS011;10126;50.876;4.470;2023-02-13T08:36:16;0.20;;;0.20;;
19927;SDS011;10126;50.876;4.470;2023-02-13T08:38:18;0.30;;;0.30;;
19927;SDS011;10126;50.876;4.470;2023-02-13T08:40:20;0.20;;;0.20;;
19927;SDS011;10126;50.876;4.470;2023-02-13T08:42:21;0.30;;;0.30;;
19927;SDS011;10126;50.876;4.470;2023-02-13T08:44:21;0.40;;;0.40;;
19927;SDS011;10126;50.876;4.470;2023-02-13T08:46:22;0.30;;;0.30;;
19927;SDS011;10126;50.876;4.470;2023-02-13T08:48:23;0.30;;;0.30;;
19927;SDS011;10126;50.876;4.470;2023-02-13T08:50:23;0.30;;;0.30;;
19927;SDS011;10126;50.876;4.470;2023-02-13T08:52:24;0.40;;;0.40;;
19927;SDS011;10126;50.876;4.470;2023-02-13T08:54:25;0.40;;;0.40;;
19927;SDS011;10126;50.876;4.470;2023-02-13T08:56:26;0.27;;;0.27;;
19927;SDS011;10126;50.876;4.470;2023-02-13T08:58:27;0.30;;;0.30;;
19927;SDS011;10126;50.876;4.470;2023-02-13T09:00:28;0.30;;;0.30;;
19927;SDS011;10126;50.876;4.470;2023-02-13T09:02:30;0.30;;;0.30;;
19927;SDS011;10126;50.876;4.470;2023-02-13T09:04:30;0.40;;;0.30;;
19927;SDS011;10126;50.876;4.470;2023-02-13T09:06:32;0.30;;;0.30;;
19927;SDS011;10126;50.876;4.470;2023-02-13T09:08:33;0.30;;;0.30;;
19927;SDS011;10126;50.876;4.470;2023-02-13T09:10:35;0.30;;;0.30;;
19927;SDS011;10126;50.876;4.470;2023-02-13T09:12:35;0.30;;;0.30;;
19927;SDS011;10126;50.876;4.470;2023-02-13T09:14:36;0.17;;;0.17;;
19927;SDS011;10126;50.876;4.470;2023-02-13T09:16:38;0.30;;;0.30;;
19927;SDS011;10126;50.876;4.470;2023-02-13T09:18:38;0.30;;;0.30;;
19927;SDS011;10126;50.876;4.470;2023-02-13T09:20:39;0.30;;;0.30;;
19927;SDS011;10126;50.876;4.470;2023-02-13T09:22:40;0.30;;;0.30;;
19927;SDS011;10126;50.876;4.470;2023-02-13T09:24:41;0.30;;;0.30;;
19927;SDS011;10126;50.876;4.470;2023-02-13T09:26:41;0.30;;;0.30;;
19927;SDS011;10126;50.876;4.470;2023-02-13T09:28:42;0.30;;;0.30;;
19927;SDS011;10126;50.876;4.470;2023-02-13T09:30:43;0.30;;;0.30;;
19927;SDS011;10126;50.876;4.470;2023-02-13T09:32:44;0.30;;;0.30;;
19927;SDS011;10126;50.876;4.470;2023-02-13T09:34:44;0.40;;;0.40;;
19927;SDS011;10126;50.876;4.470;2023-02-13T09:36:45;0.33;;;0.33;;
19927;SDS011;10126;50.876;4.470;2023-02-13T09:38:51;0.30;;;0.30;;
19927;SDS011;10126;50.876;4.470;2023-02-13T09:40:54;0.20;;;0.20;;
19927;SDS011;10126;50.876;4.470;2023-02-13T09:43:06;0.30;;;0.30;;
19927;SDS011;10126;50.876;4.470;2023-02-13T09:45:13;0.30;;;0.30;;
19927;SDS011;10126;50.876;4.470;2023-02-13T09:49:27;0.20;;;0.20;;
19927;SDS011;10126;50.876;4.470;2023-02-13T09:51:31;0.30;;;0.30;;
19927;SDS011;10126;50.876;4.470;2023-02-13T09:53:32;0.30;;;0.30;;
19927;SDS011;10126;50.876;4.470;2023-02-13T09:58:14;0.30;;;0.30;;
19927;SDS011;10126;50.876;4.470;2023-02-13T10:00:29;0.27;;;0.27;;
19927;SDS011;10126;50.876;4.470;2023-02-13T10:04:55;0.33;;;0.33;;
19927;SDS011;10126;50.876;4.470;2023-02-13T10:16:00;0.30;;;0.30;;
19927;SDS011;10126;50.876;4.470;2023-02-13T10:18:13;0.40;;;0.30;;
19927;SDS011;10126;50.876;4.470;2023-02-13T10:20:21;0.30;;;0.30;;
19927;SDS011;10126;50.876;4.470;2023-02-13T10:22:28;0.20;;;0.20;;
19927;SDS011;10126;50.876;4.470;2023-02-13T10:24:43;0.40;;;0.40;;
19927;SDS011;10126;50.876;4.470;2023-02-13T10:26:49;0.30;;;0.30;;
19927;SDS011;10126;50.876;4.470;2023-02-13T10:29:03;0.30;;;0.30;;
19927;SDS011;10126;50.876;4.470;2023-02-13T10:31:26;0.20;;;0.20;;
19927;SDS011;10126;50.876;4.470;2023-02-13T10:33:28;0.20;;;0.20;;
19927;SDS011;10126;50.876;4.470;2023-02-13T10:35:32;0.30;;;0.30;;
19927;SDS011;10126;50.876;4.470;2023-02-13T10:37:33;0.30;;;0.30;;
19927;SDS011;10126;50.876;4.470;2023-02-13T10:39:35;0.30;;;0.30;;
19927;SDS011;10126;50.876;4.470;2023-02-13T10:46:09;0.20;;;0.20;;
19927;SDS011;10126;50.876;4.470;2023-02-13T10:51:03;0.30;;;0.30;;
19927;SDS011;10126;50.876;4.470;2023-02-13T10:53:33;0.30;;;0.30;;
19927;SDS011;10126;50.876;4.470;2023-02-13T10:55:59;0.30;;;0.30;;
19927;SDS011;10126;50.876;4.470;2023-02-13T10:58:19;0.20;;;0.20;;
19927;SDS011;10126;50.876;4.470;2023-02-13T11:03:03;0.20;;;0.20;;
19927;SDS011;10126;50.876;4.470;2023-02-13T11:05:15;0.20;;;0.20;;
19927;SDS011;10126;50.876;4.470;2023-02-13T11:07:20;0.27;;;0.27;;
19927;SDS011;10126;50.876;4.470;2023-02-13T11:09:23;0.20;;;0.20;;
19927;SDS011;10126;50.876;4.470;2023-02-13T11:11:35;0.20;;;0.20;;
19927;SDS011;10126;50.876;4.470;2023-02-13T11:13:38;0.30;;;0.30;;
19927;SDS011;10126;50.876;4.470;2023-02-13T11:15:39;0.30;;;0.30;;
19927;SDS011;10126;50.876;4.470;2023-02-13T11:17:40;0.20;;;0.20;;
19927;SDS011;10126;50.876;4.470;2023-02-13T11:19:48;0.30;;;0.30;;
19927;SDS011;10126;50.876;4.470;2023-02-13T11:21:55;0.20;;;0.20;;
19927;SDS011;10126;50.876;4.470;2023-02-13T11:24:03;0.30;;;0.30;;
19927;SDS011;10126;50.876;4.470;2023-02-13T11:26:11;0.30;;;0.30;;
19927;SDS011;10126;50.876;4.470;2023-02-13T11:28:20;0.30;;;0.30;;
19927;SDS011;10126;50.876;4.470;2023-02-13T11:32:23;0.30;;;0.30;;
19927;SDS011;10126;50.876;4.470;2023-02-13T11:34:26;0.30;;;0.30;;
19927;SDS011;10126;50.876;4.470;2023-02-13T11:36:32;0.30;;;0.30;;
19927;SDS011;10126;50.876;4.470;2023-02-13T11:38:33;0.20;;;0.20;;
19927;SDS011;10126;50.876;4.470;2023-02-13T11:40:34;0.20;;;0.20;;
19927;SDS011;10126;50.876;4.470;2023-02-13T11:42:35;0.20;;;0.20;;
19927;SDS011;10126;50.876;4.470;2023-02-13T11:44:36;0.20;;;0.20;;
19927;SDS011;10126;50.876;4.470;2023-02-13T11:46:47;0.20;;;0.20;;
19927;SDS011;10126;50.876;4.470;2023-02-13T11:48:56;0.20;;;0.20;;
19927;SDS011;10126;50.876;4.470;2023-02-13T11:50:57;0.40;;;0.30;;
19927;SDS011;10126;50.876;4.470;2023-02-13T11:53:02;0.30;;;0.30;;
19927;SDS011;10126;50.876;4.470;2023-02-13T11:55:23;0.20;;;0.20;;
19927;SDS011;10126;50.876;4.470;2023-02-13T11:57:32;0.20;;;0.20;;
19927;SDS011;10126;50.876;4.470;2023-02-13T11:59:43;0.30;;;0.30;;
19927;SDS011;10126;50.876;4.470;2023-02-13T12:01:45;0.30;;;0.30;;
19927;SDS011;10126;50.876;4.470;2023-02-13T12:04:22;0.30;;;0.30;;
19927;SDS011;10126;50.876;4.470;2023-02-13T12:06:17;0.30;;;0.30;;
19927;SDS011;10126;50.876;4.470;2023-02-13T12:08:19;0.27;;;0.27;;
19927;SDS011;10126;50.876;4.470;2023-02-13T12:10:21;0.20;;;0.20;;
19927;SDS011;10126;50.876;4.470;2023-02-13T12:12:37;0.30;;;0.30;;
19927;SDS011;10126;50.876;4.470;2023-02-13T12:14:42;0.20;;;0.20;;
19927;SDS011;10126;50.876;4.470;2023-02-13T12:18:50;0.20;;;0.20;;
19927;SDS011;10126;50.876;4.470;2023-02-13T12:23:21;0.30;;;0.30;;
19927;SDS011;10126;50.876;4.470;2023-02-13T12:25:56;0.30;;;0.30;;
19927;SDS011;10126;50.876;4.470;2023-02-13T12:35:06;0.30;;;0.30;;
19927;SDS011;10126;50.876;4.470;2023-02-13T12:47:03;0.30;;;0.30;;
19927;SDS011;10126;50.876;4.470;2023-02-13T12:56:32;0.30;;;0.30;;
19927;SDS011;10126;50.876;4.470;2023-02-13T13:01:37;0.30;;;0.30;;
19927;SDS011;10126;50.876;4.470;2023-02-13T13:10:35;0.20;;;0.20;;
19927;SDS011;10126;50.876;4.470;2023-02-13T13:12:47;0.27;;;0.27;;
19927;SDS011;10126;50.876;4.470;2023-02-13T13:21:53;0.20;;;0.20;;
19927;SDS011;10126;50.876;4.470;2023-02-13T13:26:37;0.30;;;0.30;;
19927;SDS011;10126;50.876;4.470;2023-02-13T13:28:49;0.20;;;0.20;;
19927;SDS011;10126;50.876;4.470;2023-02-13T13:30:53;0.20;;;0.20;;
19927;SDS011;10126;50.876;4.470;2023-02-13T13:32:59;0.20;;;0.20;;
19927;SDS011;10126;50.876;4.470;2023-02-13T13:35:15;0.30;;;0.30;;
19927;SDS011;10126;50.876;4.470;2023-02-13T13:37:31;0.30;;;0.30;;
19927;SDS011;10126;50.876;4.470;2023-02-13T13:39:59;0.20;;;0.20;;
19927;SDS011;10126;50.876;4.470;2023-02-13T13:46:39;0.30;;;0.30;;
19927;SDS011;10126;50.876;4.470;2023-02-13T13:51:08;0.30;;;0.30;;
19927;SDS011;10126;50.876;4.470;2023-02-13T13:53:19;0.20;;;0.20;;
19927;SDS011;10126;50.876;4.470;2023-02-13T13:58:04;0.27;;;0.27;;
19927;SDS011;10126;50.876;4.470;2023-02-13T14:00:22;0.20;;;0.20;;
19927;SDS011;10126;50.876;4.470;2023-02-13T14:04:38;0.20;;;0.20;;
19927;SDS011;10126;50.876;4.470;2023-02-13T14:08:59;0.20;;;0.20;;
19927;SDS011;10126;50.876;4.470;2023-02-13T14:11:01;0.20;;;0.20;;
19927;SDS011;10126;50.876;4.470;2023-02-13T14:13:03;0.20;;;0.20;;
19927;SDS011;10126;50.876;4.470;2023-02-13T14:15:47;0.20;;;0.20;;
19927;SDS011;10126;50.876;4.470;2023-02-13T14:19:49;0.30;;;0.30;;
19927;SDS011;10126;50.876;4.470;2023-02-13T14:21:52;0.30;;;0.30;;
19927;SDS011;10126;50.876;4.470;2023-02-13T14:23:53;0.20;;;0.20;;
19927;SDS011;10126;50.876;4.470;2023-02-13T14:26:09;0.30;;;0.30;;
19927;SDS011;10126;50.876;4.470;2023-02-13T14:28:22;0.30;;;0.30;;
19927;SDS011;10126;50.876;4.470;2023-02-13T14:30:29;0.30;;;0.30;;
19927;SDS011;10126;50.876;4.470;2023-02-13T14:32:39;0.20;;;0.20;;
19927;SDS011;10126;50.876;4.470;2023-02-13T14:34:40;0.20;;;0.20;;
19927;SDS011;10126;50.876;4.470;2023-02-13T14:36:46;0.20;;;0.20;;
19927;SDS011;10126;50.876;4.470;2023-02-13T14:39:07;0.30;;;0.30;;
19927;SDS011;10126;50.876;4.470;2023-02-13T14:43:48;0.20;;;0.20;;
19927;SDS011;10126;50.876;4.470;2023-02-13T14:46:01;0.23;;;0.23;;
19927;SDS011;10126;50.876;4.470;2023-02-13T14:48:11;0.20;;;0.20;;
19927;SDS011;10126;50.876;4.470;2023-02-13T14:50:21;0.30;;;0.30;;
19927;SDS011;10126;50.876;4.470;2023-02-13T14:52:34;0.30;;;0.30;;
19927;SDS011;10126;50.876;4.470;2023-02-13T14:54:46;0.30;;;0.30;;
19927;SDS011;10126;50.876;4.470;2023-02-13T14:56:50;0.30;;;0.30;;